Terminal Aerodrome Forecast
Issued by NWS

Home | Current Version | Previous Version | Text Only | Print | Product List | Glossary On
Versions: 1 2 3 4 5 6 7 8 9 10 11 12 13 14 15 16 17 18 19 20 21 22 23 24
000
FTPA31 PHFO 300500
TAFMKK
TAF
PHMK 300523Z 3006/3106 04012KT P6SM SCT030
     FM300900 04008KT P6SM SCT030
     FM302100 03012G22KT P6SM VCSH SCT025 BKN040
     FM310400 04012KT P6SM SCT050=

USA.gov is the U.S. government's official web portal to all federal, state and local government web resources and services.